Terminal Aerodrome Forecast
Issued by NWS Lubbock, TX

Home | Current Version | Previous Version | Text Only | Print | Product List | Glossary On
Versions: 1 2 3 4 5 6 7 8 9 10 11 12 13 14 15 16 17 18 19 20 21 22 23 24 25
000
FTUS44 KLUB 041723
TAFLBB
TAF
KLBB 041723Z 0418/0518 03018KT 1SM -FZRAPL BR OVC007
     FM042000 02018KT 1SM -SN OVC007
     FM050200 02012KT P6SM OVC020=

USA.gov is the U.S. government's official web portal to all federal, state and local government web resources and services.